sensor_id;sensor_type;location;lat;lon;timestamp;noise_LAeq;noise_LA_min;noise_LA_max;noise_LA01;noise_LA95
60031;Laerm;45901;47.600;9.890;2023-11-22T00:02:16;40.37;37.88;45.59;;
60031;Laerm;45901;47.600;9.890;2023-11-22T00:04:44;40.25;37.52;42.35;;
60031;Laerm;45901;47.600;9.890;2023-11-22T00:07:11;40.24;37.88;42.29;;
60031;Laerm;45901;47.600;9.890;2023-11-22T00:09:38;40.42;37.70;42.41;;
60031;Laerm;45901;47.600;9.890;2023-11-22T00:12:06;40.39;37.88;42.22;;
60031;Laerm;45901;47.600;9.890;2023-11-22T00:14:34;40.34;37.70;42.35;;
60031;Laerm;45901;47.600;9.890;2023-11-22T00:17:03;40.57;37.52;46.57;;
60031;Laerm;45901;47.600;9.890;2023-11-22T00:19:30;40.11;37.52;41.89;;
60031;Laerm;45901;47.600;9.890;2023-11-22T00:21:58;40.08;37.70;45.14;;
60031;Laerm;45901;47.600;9.890;2023-11-22T00:24:25;40.29;37.88;42.09;;
60031;Laerm;45901;47.600;9.890;2023-11-22T00:26:52;40.49;37.70;42.47;;
60031;Laerm;45901;47.600;9.890;2023-11-22T00:29:19;40.50;37.70;42.29;;
60031;Laerm;45901;47.600;9.890;2023-11-22T00:31:46;40.70;37.88;45.48;;
60031;Laerm;45901;47.600;9.890;2023-11-22T00:34:14;40.64;38.18;42.53;;
60031;Laerm;45901;47.600;9.890;2023-11-22T00:36:41;40.63;37.88;42.65;;
60031;Laerm;45901;47.600;9.890;2023-11-22T00:39:08;40.59;37.70;42.53;;
60031;Laerm;45901;47.600;9.890;2023-11-22T00:41:38;40.71;38.05;42.47;;
60031;Laerm;45901;47.600;9.890;2023-11-22T00:44:05;40.79;38.21;42.65;;
60031;Laerm;45901;47.600;9.890;2023-11-22T00:46:33;40.94;38.05;45.91;;
60031;Laerm;45901;47.600;9.890;2023-11-22T00:49:00;40.67;37.88;42.82;;
60031;Laerm;45901;47.600;9.890;2023-11-22T00:51:28;40.89;38.37;43.39;;
60031;Laerm;45901;47.600;9.890;2023-11-22T00:53:56;40.89;38.21;43.09;;
60031;Laerm;45901;47.600;9.890;2023-11-22T00:56:23;40.53;37.88;42.65;;
60031;Laerm;45901;47.600;9.890;2023-11-22T00:58:50;40.44;37.52;42.16;;
60031;Laerm;45901;47.600;9.890;2023-11-22T01:01:18;40.92;38.21;45.77;;
60031;Laerm;45901;47.600;9.890;2023-11-22T01:03:46;40.91;37.70;43.04;;
60031;Laerm;45901;47.600;9.890;2023-11-22T01:06:13;40.72;37.88;42.65;;
60031;Laerm;45901;47.600;9.890;2023-11-22T01:08:41;40.69;37.88;42.88;;
60031;Laerm;45901;47.600;9.890;2023-11-22T01:11:08;40.82;38.21;42.71;;
60031;Laerm;45901;47.600;9.890;2023-11-22T01:13:35;40.82;37.88;42.93;;
60031;Laerm;45901;47.600;9.890;2023-11-22T01:16:06;40.50;37.88;45.14;;
60031;Laerm;45901;47.600;9.890;2023-11-22T01:18:33;40.51;37.88;42.29;;
60031;Laerm;45901;47.600;9.890;2023-11-22T01:21:00;40.72;38.05;42.65;;
60031;Laerm;45901;47.600;9.890;2023-11-22T01:23:29;40.93;37.52;42.88;;
60031;Laerm;45901;47.600;9.890;2023-11-22T01:25:58;40.84;38.05;42.71;;
60031;Laerm;45901;47.600;9.890;2023-11-22T01:28:26;40.93;38.05;42.76;;
60031;Laerm;45901;47.600;9.890;2023-11-22T01:30:53;41.04;38.21;46.18;;
60031;Laerm;45901;47.600;9.890;2023-11-22T01:33:22;40.64;37.88;42.59;;
60031;Laerm;45901;47.600;9.890;2023-11-22T01:35:49;40.34;37.32;42.22;;
60031;Laerm;45901;47.600;9.890;2023-11-22T01:38:16;40.37;37.52;42.41;;
60031;Laerm;45901;47.600;9.890;2023-11-22T01:40:44;40.51;38.05;42.47;;
60031;Laerm;45901;47.600;9.890;2023-11-22T01:43:14;40.67;37.88;42.71;;
60031;Laerm;45901;47.600;9.890;2023-11-22T01:45:42;40.83;38.37;45.33;;
60031;Laerm;45901;47.600;9.890;2023-11-22T01:48:11;40.82;37.70;43.04;;
60031;Laerm;45901;47.600;9.890;2023-11-22T01:50:39;40.70;38.18;42.71;;
60031;Laerm;45901;47.600;9.890;2023-11-22T01:53:07;40.53;37.52;42.71;;
60031;Laerm;45901;47.600;9.890;2023-11-22T01:55:35;40.39;37.32;42.29;;
60031;Laerm;45901;47.600;9.890;2023-11-22T01:58:02;40.41;38.05;42.22;;
60031;Laerm;45901;47.600;9.890;2023-11-22T02:00:36;40.57;37.70;45.91;;
60031;Laerm;45901;47.600;9.890;2023-11-22T02:03:03;40.29;37.70;42.13;;
60031;Laerm;45901;47.600;9.890;2023-11-22T02:05:30;40.32;37.12;42.47;;
60031;Laerm;45901;47.600;9.890;2023-11-22T02:07:57;40.26;36.91;42.09;;
60031;Laerm;45901;47.600;9.890;2023-11-22T02:10:25;40.12;37.32;41.96;;
60031;Laerm;45901;47.600;9.890;2023-11-22T02:12:52;40.22;37.12;42.22;;
60031;Laerm;45901;47.600;9.890;2023-11-22T02:15:19;40.63;37.52;45.54;;
60031;Laerm;45901;47.600;9.890;2023-11-22T02:17:47;40.81;37.88;42.76;;
60031;Laerm;45901;47.600;9.890;2023-11-22T02:20:14;40.94;37.12;42.93;;
60031;Laerm;45901;47.600;9.890;2023-11-22T02:22:44;40.88;37.52;42.76;;
60031;Laerm;45901;47.600;9.890;2023-11-22T02:25:14;41.07;38.37;42.82;;
60031;Laerm;45901;47.600;9.890;2023-11-22T02:27:41;41.08;38.67;42.82;;
60031;Laerm;45901;47.600;9.890;2023-11-22T02:30:10;41.19;37.70;45.60;;
60031;Laerm;45901;47.600;9.890;2023-11-22T02:32:37;40.80;37.52;42.59;;
60031;Laerm;45901;47.600;9.890;2023-11-22T02:35:05;40.86;38.37;42.59;;
60031;Laerm;45901;47.600;9.890;2023-11-22T02:37:34;40.78;38.05;42.76;;
60031;Laerm;45901;47.600;9.890;2023-11-22T02:40:06;41.05;38.37;42.93;;
60031;Laerm;45901;47.600;9.890;2023-11-22T02:42:37;41.05;38.21;43.09;;
60031;Laerm;45901;47.600;9.890;2023-11-22T02:45:06;41.06;38.67;44.94;;
60031;Laerm;45901;47.600;9.890;2023-11-22T02:47:33;40.96;38.37;42.82;;
60031;Laerm;45901;47.600;9.890;2023-11-22T02:50:01;40.86;38.05;42.82;;
60031;Laerm;45901;47.600;9.890;2023-11-22T02:52:28;40.90;37.88;42.88;;
60031;Laerm;45901;47.600;9.890;2023-11-22T02:54:55;40.75;38.05;43.09;;
60031;Laerm;45901;47.600;9.890;2023-11-22T02:57:22;40.76;38.05;42.47;;
60031;Laerm;45901;47.600;9.890;2023-11-22T02:59:50;40.64;38.21;42.76;;
60031;Laerm;45901;47.600;9.890;2023-11-22T03:02:18;41.10;38.37;48.42;;
60031;Laerm;45901;47.600;9.890;2023-11-22T03:04:45;40.61;37.70;44.54;;
60031;Laerm;45901;47.600;9.890;2023-11-22T03:07:12;40.36;37.12;42.88;;
60031;Laerm;45901;47.600;9.890;2023-11-22T03:09:39;40.45;37.32;42.71;;
60031;Laerm;45901;47.600;9.890;2023-11-22T03:12:07;40.55;37.52;42.53;;
60031;Laerm;45901;47.600;9.890;2023-11-22T03:14:35;40.50;37.70;42.35;;
60031;Laerm;45901;47.600;9.890;2023-11-22T03:17:03;40.59;37.88;45.36;;
60031;Laerm;45901;47.600;9.890;2023-11-22T03:19:30;40.68;38.37;42.59;;
60031;Laerm;45901;47.600;9.890;2023-11-22T03:21:59;40.65;38.21;42.41;;
60031;Laerm;45901;47.600;9.890;2023-11-22T03:24:28;40.56;38.47;42.98;;
60031;Laerm;45901;47.600;9.890;2023-11-22T03:26:56;41.37;38.81;46.02;;
60031;Laerm;45901;47.600;9.890;2023-11-22T03:29:24;41.67;39.21;46.52;;
60031;Laerm;45901;47.600;9.890;2023-11-22T03:31:51;42.83;40.23;49.84;;
60031;Laerm;45901;47.600;9.890;2023-11-22T03:34:21;41.50;38.95;46.71;;
60031;Laerm;45901;47.600;9.890;2023-11-22T03:36:48;41.43;39.08;45.54;;
60031;Laerm;45901;47.600;9.890;2023-11-22T03:39:16;43.37;40.71;49.69;;
60031;Laerm;45901;47.600;9.890;2023-11-22T03:41:43;43.60;40.89;52.42;;
60031;Laerm;45901;47.600;9.890;2023-11-22T03:44:10;42.10;39.57;48.36;;
60031;Laerm;45901;47.600;9.890;2023-11-22T03:46:37;41.43;38.52;47.96;;
60031;Laerm;45901;47.600;9.890;2023-11-22T03:49:05;40.89;38.95;46.20;;
60031;Laerm;45901;47.600;9.890;2023-11-22T03:51:36;42.08;38.67;48.94;;
60031;Laerm;45901;47.600;9.890;2023-11-22T03:54:03;42.32;39.92;49.35;;
60031;Laerm;45901;47.600;9.890;2023-11-22T03:56:31;41.27;38.52;46.18;;
60031;Laerm;45901;47.600;9.890;2023-11-22T03:58:59;40.28;37.88;43.04;;
60031;Laerm;45901;47.600;9.890;2023-11-22T04:01:26;40.52;37.52;46.28;;
60031;Laerm;45901;47.600;9.890;2023-11-22T04:03:54;40.17;37.52;43.19;;
60031;Laerm;45901;47.600;9.890;2023-11-22T04:06:22;40.37;37.70;46.13;;
60031;Laerm;45901;47.600;9.890;2023-11-22T04:08:50;40.22;37.32;44.27;;
60031;Laerm;45901;47.600;9.890;2023-11-22T04:11:19;40.12;37.88;42.03;;
60031;Laerm;45901;47.600;9.890;2023-11-22T04:13:47;40.23;37.70;44.15;;
60031;Laerm;45901;47.600;9.890;2023-11-22T04:16:14;40.28;37.52;45.33;;
60031;Laerm;45901;47.600;9.890;2023-11-22T04:18:43;40.80;37.70;45.39;;
60031;Laerm;45901;47.600;9.890;2023-11-22T04:21:10;40.13;37.52;41.96;;
60031;Laerm;45901;47.600;9.890;2023-11-22T04:23:37;40.13;37.52;43.77;;
60031;Laerm;45901;47.600;9.890;2023-11-22T04:26:05;40.09;37.32;42.03;;
60031;Laerm;45901;47.600;9.890;2023-11-22T04:28:33;40.01;37.88;41.75;;
60031;Laerm;45901;47.600;9.890;2023-11-22T04:31:00;40.05;37.52;45.30;;
60031;Laerm;45901;47.600;9.890;2023-11-22T04:33:27;39.91;37.52;41.82;;
60031;Laerm;45901;47.600;9.890;2023-11-22T04:35:54;39.94;37.32;43.24;;
60031;Laerm;45901;47.600;9.890;2023-11-22T04:38:22;40.23;37.52;43.81;;
60031;Laerm;45901;47.600;9.890;2023-11-22T04:40:49;39.88;36.69;41.68;;
60031;Laerm;45901;47.600;9.890;2023-11-22T04:43:17;39.82;37.52;41.75;;
60031;Laerm;45901;47.600;9.890;2023-11-22T04:45:44;40.28;37.52;45.57;;
60031;Laerm;45901;47.600;9.890;2023-11-22T04:48:11;40.30;36.69;45.94;;
60031;Laerm;45901;47.600;9.890;2023-11-22T04:50:41;40.26;37.52;46.10;;
60031;Laerm;45901;47.600;9.890;2023-11-22T04:53:08;39.99;37.70;43.81;;
60031;Laerm;45901;47.600;9.890;2023-11-22T04:55:35;40.08;37.52;43.04;;
60031;Laerm;45901;47.600;9.890;2023-11-22T04:58:02;40.38;37.32;45.51;;
60031;Laerm;45901;47.600;9.890;2023-11-22T05:00:31;40.44;37.12;47.12;;
60031;Laerm;45901;47.600;9.890;2023-11-22T05:02:58;40.10;37.32;42.76;;
60031;Laerm;45901;47.600;9.890;2023-11-22T05:05:25;40.21;37.32;42.76;;
60031;Laerm;45901;47.600;9.890;2023-11-22T05:07:51;40.22;37.52;44.97;;
60031;Laerm;45901;47.600;9.890;2023-11-22T05:10:19;40.23;37.70;42.98;;
60031;Laerm;45901;47.600;9.890;2023-11-22T05:12:45;40.13;37.52;41.89;;
60031;Laerm;45901;47.600;9.890;2023-11-22T05:15:13;40.38;37.12;45.39;;
60031;Laerm;45901;47.600;9.890;2023-11-22T05:17:41;40.30;37.70;43.39;;
60031;Laerm;45901;47.600;9.890;2023-11-22T05:20:09;40.27;37.88;42.09;;
60031;Laerm;45901;47.600;9.890;2023-11-22T05:22:36;40.60;38.21;43.81;;
60031;Laerm;45901;47.600;9.890;2023-11-22T05:25:04;40.75;38.37;44.94;;
60031;Laerm;45901;47.600;9.890;2023-11-22T05:27:32;41.41;38.52;48.96;;
60031;Laerm;45901;47.600;9.890;2023-11-22T05:29:59;40.93;38.05;46.48;;
60031;Laerm;45901;47.600;9.890;2023-11-22T05:32:27;40.73;38.21;43.49;;
60031;Laerm;45901;47.600;9.890;2023-11-22T05:34:55;40.64;37.88;45.04;;
60031;Laerm;45901;47.600;9.890;2023-11-22T05:37:22;40.99;38.37;46.38;;
60031;Laerm;45901;47.600;9.890;2023-11-22T05:39:49;40.89;38.32;42.88;;
60031;Laerm;45901;47.600;9.890;2023-11-22T05:42:16;40.98;38.37;43.76;;
60031;Laerm;45901;47.600;9.890;2023-11-22T05:44:43;41.38;38.37;45.99;;
60031;Laerm;45901;47.600;9.890;2023-11-22T05:47:10;41.27;38.52;46.63;;
60031;Laerm;45901;47.600;9.890;2023-11-22T05:49:38;41.27;38.95;47.76;;
60031;Laerm;45901;47.600;9.890;2023-11-22T05:52:07;41.19;38.21;46.76;;
60031;Laerm;45901;47.600;9.890;2023-11-22T05:54:34;40.94;38.37;42.82;;
60031;Laerm;45901;47.600;9.890;2023-11-22T05:57:01;40.94;37.88;45.77;;
60031;Laerm;45901;47.600;9.890;2023-11-22T05:59:27;41.26;38.21;44.12;;
60031;Laerm;45901;47.600;9.890;2023-11-22T06:01:54;41.73;38.81;48.15;;
60031;Laerm;45901;47.600;9.890;2023-11-22T06:04:21;41.39;38.52;46.84;;
60031;Laerm;45901;47.600;9.890;2023-11-22T06:06:48;41.27;38.81;44.87;;
60031;Laerm;45901;47.600;9.890;2023-11-22T06:09:18;41.12;38.37;45.23;;
60031;Laerm;45901;47.600;9.890;2023-11-22T06:11:45;40.98;38.52;43.99;;
60031;Laerm;45901;47.600;9.890;2023-11-22T06:14:12;41.05;37.70;47.26;;
60031;Laerm;45901;47.600;9.890;2023-11-22T06:16:39;40.71;37.70;45.17;;
60031;Laerm;45901;47.600;9.890;2023-11-22T06:19:05;40.61;37.88;42.76;;
60031;Laerm;45901;47.600;9.890;2023-11-22T06:21:33;40.81;38.05;47.46;;
60031;Laerm;45901;47.600;9.890;2023-11-22T06:24:01;41.26;38.37;45.07;;
60031;Laerm;45901;47.600;9.890;2023-11-22T06:26:30;40.72;37.70;45.91;;
60031;Laerm;45901;47.600;9.890;2023-11-22T06:28:56;40.18;37.88;42.35;;
60031;Laerm;45901;47.600;9.890;2023-11-22T06:31:23;40.45;38.05;44.73;;
60031;Laerm;45901;47.600;9.890;2023-11-22T06:33:50;41.10;38.21;46.07;;
60031;Laerm;45901;47.600;9.890;2023-11-22T06:36:17;40.93;38.21;47.96;;
60031;Laerm;45901;47.600;9.890;2023-11-22T06:38:46;41.66;38.37;48.12;;
60031;Laerm;45901;47.600;9.890;2023-11-22T06:41:13;40.40;37.88;45.04;;
60031;Laerm;45901;47.600;9.890;2023-11-22T06:43:41;40.50;37.87;46.38;;
60031;Laerm;45901;47.600;9.890;2023-11-22T06:46:08;40.58;37.70;46.40;;
60031;Laerm;45901;47.600;9.890;2023-11-22T06:48:35;40.77;37.32;45.66;;
60031;Laerm;45901;47.600;9.890;2023-11-22T06:51:02;44.16;38.21;51.61;;
60031;Laerm;45901;47.600;9.890;2023-11-22T06:53:29;45.06;40.13;53.13;;
60031;Laerm;45901;47.600;9.890;2023-11-22T06:55:57;43.38;37.70;52.68;;
60031;Laerm;45901;47.600;9.890;2023-11-22T06:58:24;40.31;37.52;44.15;;
60031;Laerm;45901;47.600;9.890;2023-11-22T07:00:52;40.94;37.32;47.50;;
60031;Laerm;45901;47.600;9.890;2023-11-22T07:03:21;40.60;37.70;47.36;;
60031;Laerm;45901;47.600;9.890;2023-11-22T07:05:48;40.60;37.88;54.24;;
60031;Laerm;45901;47.600;9.890;2023-11-22T07:08:15;40.51;37.88;45.01;;
60031;Laerm;45901;47.600;9.890;2023-11-22T07:10:42;40.11;37.70;42.09;;
60031;Laerm;45901;47.600;9.890;2023-11-22T07:13:10;40.47;37.88;46.57;;
60031;Laerm;45901;47.600;9.890;2023-11-22T07:15:38;44.57;38.21;51.95;;
60031;Laerm;45901;47.600;9.890;2023-11-22T07:18:07;40.74;37.32;44.54;;
60031;Laerm;45901;47.600;9.890;2023-11-22T07:20:35;40.75;38.05;44.94;;
60031;Laerm;45901;47.600;9.890;2023-11-22T07:23:02;40.75;38.21;45.17;;
60031;Laerm;45901;47.600;9.890;2023-11-22T07:25:30;46.38;38.05;53.63;;
60031;Laerm;45901;47.600;9.890;2023-11-22T07:27:57;43.93;37.32;54.26;;
60031;Laerm;45901;47.600;9.890;2023-11-22T07:30:25;40.54;37.70;45.20;;
60031;Laerm;45901;47.600;9.890;2023-11-22T07:32:55;40.39;37.70;43.39;;
60031;Laerm;45901;47.600;9.890;2023-11-22T07:35:26;40.55;36.91;43.19;;
60031;Laerm;45901;47.600;9.890;2023-11-22T07:37:54;40.38;37.32;42.41;;
60031;Laerm;45901;47.600;9.890;2023-11-22T07:40:21;40.61;38.05;44.76;;
60031;Laerm;45901;47.600;9.890;2023-11-22T07:42:48;40.60;38.05;43.09;;
60031;Laerm;45901;47.600;9.890;2023-11-22T07:45:15;40.65;37.52;44.31;;
60031;Laerm;45901;47.600;9.890;2023-11-22T07:47:42;40.58;37.88;44.58;;
60031;Laerm;45901;47.600;9.890;2023-11-22T07:50:10;41.95;37.88;49.59;;
60031;Laerm;45901;47.600;9.890;2023-11-22T07:52:39;42.11;37.52;51.02;;
60031;Laerm;45901;47.600;9.890;2023-11-22T07:55:08;40.62;38.05;42.93;;
60031;Laerm;45901;47.600;9.890;2023-11-22T07:57:36;40.94;38.37;44.35;;
60031;Laerm;45901;47.600;9.890;2023-11-22T08:00:06;41.48;38.52;49.44;;
60031;Laerm;45901;47.600;9.890;2023-11-22T08:02:33;41.50;38.67;47.59;;
60031;Laerm;45901;47.600;9.890;2023-11-22T08:05:00;41.29;37.88;44.35;;
60031;Laerm;45901;47.600;9.890;2023-11-22T08:07:29;41.38;38.21;43.24;;
60031;Laerm;45901;47.600;9.890;2023-11-22T08:09:59;41.55;38.52;44.34;;
60031;Laerm;45901;47.600;9.890;2023-11-22T08:12:35;41.24;38.52;43.90;;
60031;Laerm;45901;47.600;9.890;2023-11-22T08:15:04;40.99;37.88;44.94;;
60031;Laerm;45901;47.600;9.890;2023-11-22T08:17:31;40.66;38.21;42.93;;
60031;Laerm;45901;47.600;9.890;2023-11-22T08:19:59;40.55;38.05;42.65;;
60031;Laerm;45901;47.600;9.890;2023-11-22T08:22:28;40.51;37.88;44.19;;
60031;Laerm;45901;47.600;9.890;2023-11-22T08:24:55;40.43;37.88;42.47;;
60031;Laerm;45901;47.600;9.890;2023-11-22T08:27:24;40.27;37.52;42.29;;
60031;Laerm;45901;47.600;9.890;2023-11-22T08:29:51;40.23;37.12;42.88;;
60031;Laerm;45901;47.600;9.890;2023-11-22T08:32:18;40.57;37.52;46.64;;
60031;Laerm;45901;47.600;9.890;2023-11-22T08:34:49;40.73;36.91;48.32;;
60031;Laerm;45901;47.600;9.890;2023-11-22T08:37:16;40.20;37.12;42.35;;
60031;Laerm;45901;47.600;9.890;2023-11-22T08:39:43;40.24;37.52;42.53;;
60031;Laerm;45901;47.600;9.890;2023-11-22T08:42:10;40.68;38.05;47.65;;
60031;Laerm;45901;47.600;9.890;2023-11-22T08:44:41;41.79;37.88;48.20;;
60031;Laerm;45901;47.600;9.890;2023-11-22T08:47:08;40.84;37.88;46.18;;
60031;Laerm;45901;47.600;9.890;2023-11-22T08:49:35;40.59;36.91;48.37;;
60031;Laerm;45901;47.600;9.890;2023-11-22T08:52:02;40.31;37.70;44.39;;
60031;Laerm;45901;47.600;9.890;2023-11-22T08:54:33;40.61;37.70;43.63;;
60031;Laerm;45901;47.600;9.890;2023-11-22T08:57:00;40.69;36.91;44.73;;
60031;Laerm;45901;47.600;9.890;2023-11-22T08:59:27;40.22;37.12;44.90;;
60031;Laerm;45901;47.600;9.890;2023-11-22T09:01:56;41.12;37.70;52.96;;
60031;Laerm;45901;47.600;9.890;2023-11-22T09:04:23;40.24;37.52;48.26;;
60031;Laerm;45901;47.600;9.890;2023-11-22T09:06:51;40.17;37.32;45.01;;
60031;Laerm;45901;47.600;9.890;2023-11-22T09:09:22;40.11;37.70;45.97;;
60031;Laerm;45901;47.600;9.890;2023-11-22T09:11:56;40.26;37.52;43.19;;
60031;Laerm;45901;47.600;9.890;2023-11-22T09:14:23;40.48;37.52;48.57;;
60031;Laerm;45901;47.600;9.890;2023-11-22T09:16:50;40.89;36.45;62.90;;
60031;Laerm;45901;47.600;9.890;2023-11-22T09:19:21;39.88;36.69;46.48;;
60031;Laerm;45901;47.600;9.890;2023-11-22T09:21:49;39.94;37.32;46.45;;
60031;Laerm;45901;47.600;9.890;2023-11-22T09:24:16;40.18;37.12;45.75;;
60031;Laerm;45901;47.600;9.890;2023-11-22T09:26:43;39.90;37.12;42.76;;
60031;Laerm;45901;47.600;9.890;2023-11-22T09:29:10;40.55;37.52;44.19;;
60031;Laerm;45901;47.600;9.890;2023-11-22T09:31:39;40.36;37.32;48.48;;
60031;Laerm;45901;47.600;9.890;2023-11-22T09:34:07;40.17;37.52;44.58;;
60031;Laerm;45901;47.600;9.890;2023-11-22T09:36:36;39.91;37.52;42.41;;
60031;Laerm;45901;47.600;9.890;2023-11-22T09:39:04;40.36;37.70;43.54;;
60031;Laerm;45901;47.600;9.890;2023-11-22T09:41:34;39.97;37.12;43.29;;
60031;Laerm;45901;47.600;9.890;2023-11-22T09:44:02;39.91;37.52;42.35;;
60031;Laerm;45901;47.600;9.890;2023-11-22T09:46:30;40.53;37.52;46.62;;
60031;Laerm;45901;47.600;9.890;2023-11-22T09:49:01;40.19;37.12;43.49;;
60031;Laerm;45901;47.600;9.890;2023-11-22T09:51:36;40.34;37.52;43.99;;
60031;Laerm;45901;47.600;9.890;2023-11-22T09:54:06;39.98;37.32;42.22;;
60031;Laerm;45901;47.600;9.890;2023-11-22T09:56:38;40.55;37.70;47.86;;
60031;Laerm;45901;47.600;9.890;2023-11-22T09:59:07;39.98;37.52;42.76;;
60031;Laerm;45901;47.600;9.890;2023-11-22T10:01:37;41.15;37.12;48.69;;
60031;Laerm;45901;47.600;9.890;2023-11-22T10:04:04;39.83;36.91;41.82;;
60031;Laerm;45901;47.600;9.890;2023-11-22T10:06:32;40.23;37.70;46.52;;
60031;Laerm;45901;47.600;9.890;2023-11-22T10:09:01;39.79;36.91;43.39;;
60031;Laerm;45901;47.600;9.890;2023-11-22T10:11:32;40.08;37.12;46.97;;
60031;Laerm;45901;47.600;9.890;2023-11-22T10:14:01;39.83;37.32;42.65;;
60031;Laerm;45901;47.600;9.890;2023-11-22T10:16:28;40.02;37.32;45.97;;
60031;Laerm;45901;47.600;9.890;2023-11-22T10:18:58;40.12;36.91;42.65;;
60031;Laerm;45901;47.600;9.890;2023-11-22T10:21:27;40.18;37.12;43.14;;
60031;Laerm;45901;47.600;9.890;2023-11-22T10:23:57;40.19;37.52;42.90;;
60031;Laerm;45901;47.600;9.890;2023-11-22T10:26:25;40.00;37.32;43.09;;
60031;Laerm;45901;47.600;9.890;2023-11-22T10:28:54;41.13;37.88;45.99;;
60031;Laerm;45901;47.600;9.890;2023-11-22T10:31:23;40.58;37.88;47.08;;
60031;Laerm;45901;47.600;9.890;2023-11-22T10:33:50;40.28;37.70;43.90;;
60031;Laerm;45901;47.600;9.890;2023-11-22T10:36:18;40.70;37.52;45.48;;
60031;Laerm;45901;47.600;9.890;2023-11-22T10:38:46;41.18;38.02;47.04;;
60031;Laerm;45901;47.600;9.890;2023-11-22T10:41:13;40.72;38.21;47.10;;
60031;Laerm;45901;47.600;9.890;2023-11-22T10:43:42;42.25;39.21;47.32;;
60031;Laerm;45901;47.600;9.890;2023-11-22T10:46:11;40.66;37.35;50.99;;
60031;Laerm;45901;47.600;9.890;2023-11-22T10:48:39;40.66;36.91;44.76;;
60031;Laerm;45901;47.600;9.890;2023-11-22T10:51:06;39.75;36.91;42.47;;
60031;Laerm;45901;47.600;9.890;2023-11-22T10:53:45;39.99;37.32;43.09;;
60031;Laerm;45901;47.600;9.890;2023-11-22T10:56:16;40.00;37.12;43.99;;
60031;Laerm;45901;47.600;9.890;2023-11-22T10:58:48;40.35;36.69;45.14;;
60031;Laerm;45901;47.600;9.890;2023-11-22T11:01:16;40.73;36.69;47.77;;
60031;Laerm;45901;47.600;9.890;2023-11-22T11:03:53;40.84;37.70;57.96;;
60031;Laerm;45901;47.600;9.890;2023-11-22T11:06:26;40.35;37.12;44.39;;
60031;Laerm;45901;47.600;9.890;2023-11-22T11:09:00;40.63;37.70;46.84;;
60031;Laerm;45901;47.600;9.890;2023-11-22T11:11:32;39.67;37.12;42.16;;
60031;Laerm;45901;47.600;9.890;2023-11-22T11:14:02;40.53;37.32;45.69;;
60031;Laerm;45901;47.600;9.890;2023-11-22T11:16:34;39.71;36.91;44.73;;
60031;Laerm;45901;47.600;9.890;2023-11-22T11:19:04;39.86;36.91;44.15;;
60031;Laerm;45901;47.600;9.890;2023-11-22T11:21:33;39.79;36.91;42.35;;
60031;Laerm;45901;47.600;9.890;2023-11-22T11:24:00;39.95;37.32;45.60;;
60031;Laerm;45901;47.600;9.890;2023-11-22T11:26:32;39.79;37.12;42.09;;
60031;Laerm;45901;47.600;9.890;2023-11-22T11:29:01;39.75;36.45;43.09;;
60031;Laerm;45901;47.600;9.890;2023-11-22T11:31:32;39.77;36.69;46.45;;
60031;Laerm;45901;47.600;9.890;2023-11-22T11:34:00;39.79;37.32;45.20;;
60031;Laerm;45901;47.600;9.890;2023-11-22T11:36:28;39.62;37.12;42.03;;
60031;Laerm;45901;47.600;9.890;2023-11-22T11:38:59;40.53;36.77;58.82;;
60031;Laerm;45901;47.600;9.890;2023-11-22T11:41:29;40.06;37.12;43.04;;
60031;Laerm;45901;47.600;9.890;2023-11-22T11:43:59;39.85;37.32;42.41;;
60031;Laerm;45901;47.600;9.890;2023-11-22T11:46:30;40.03;37.12;47.30;;
60031;Laerm;45901;47.600;9.890;2023-11-22T11:48:59;39.70;37.12;46.78;;
60031;Laerm;45901;47.600;9.890;2023-11-22T11:51:28;40.34;37.52;47.52;;
60031;Laerm;45901;47.600;9.890;2023-11-22T11:53:55;40.36;37.52;46.59;;
60031;Laerm;45901;47.600;9.890;2023-11-22T11:56:23;40.51;37.52;46.40;;
60031;Laerm;45901;47.600;9.890;2023-11-22T11:58:55;40.38;37.12;44.90;;
60031;Laerm;45901;47.600;9.890;2023-11-22T12:01:24;40.02;37.70;47.16;;
60031;Laerm;45901;47.600;9.890;2023-11-22T12:03:53;40.01;37.32;43.54;;
60031;Laerm;45901;47.600;9.890;2023-11-22T12:06:20;39.66;37.12;41.53;;
60031;Laerm;45901;47.600;9.890;2023-11-22T12:08:47;40.51;37.70;48.67;;
60031;Laerm;45901;47.600;9.890;2023-11-22T12:11:15;39.74;37.12;42.29;;
60031;Laerm;45901;47.600;9.890;2023-11-22T12:13:44;39.97;37.52;42.93;;
60031;Laerm;45901;47.600;9.890;2023-11-22T12:16:14;40.61;37.70;45.75;;
60031;Laerm;45901;47.600;9.890;2023-11-22T12:18:43;40.21;37.12;42.47;;
60031;Laerm;45901;47.600;9.890;2023-11-22T12:21:13;39.97;37.12;43.24;;
60031;Laerm;45901;47.600;9.890;2023-11-22T12:23:42;40.18;37.70;43.44;;
60031;Laerm;45901;47.600;9.890;2023-11-22T12:26:12;40.16;37.32;45.17;;
60031;Laerm;45901;47.600;9.890;2023-11-22T12:28:40;39.85;37.12;44.23;;
60031;Laerm;45901;47.600;9.890;2023-11-22T12:31:09;39.95;37.12;46.33;;
60031;Laerm;45901;47.600;9.890;2023-11-22T12:33:36;39.76;37.32;51.65;;
60031;Laerm;45901;47.600;9.890;2023-11-22T12:36:07;39.97;37.32;57.31;;
60031;Laerm;45901;47.600;9.890;2023-11-22T12:38:36;40.02;37.52;43.24;;
60031;Laerm;45901;47.600;9.890;2023-11-22T12:41:05;40.09;37.12;43.44;;
60031;Laerm;45901;47.600;9.890;2023-11-22T12:43:33;40.23;37.52;46.23;;
60031;Laerm;45901;47.600;9.890;2023-11-22T12:46:00;40.16;37.32;45.69;;
60031;Laerm;45901;47.600;9.890;2023-11-22T12:48:28;40.14;36.69;43.44;;
60031;Laerm;45901;47.600;9.890;2023-11-22T12:50:56;39.99;36.91;45.43;;
60031;Laerm;45901;47.600;9.890;2023-11-22T12:53:24;40.27;37.52;45.60;;
60031;Laerm;45901;47.600;9.890;2023-11-22T12:55:56;39.99;37.52;42.65;;
60031;Laerm;45901;47.600;9.890;2023-11-22T12:58:25;40.05;37.88;44.94;;
60031;Laerm;45901;47.600;9.890;2023-11-22T13:00:54;40.61;37.70;47.02;;
60031;Laerm;45901;47.600;9.890;2023-11-22T13:03:26;40.21;37.70;44.31;;
60031;Laerm;45901;47.600;9.890;2023-11-22T13:05:54;40.05;37.52;46.15;;
60031;Laerm;45901;47.600;9.890;2023-11-22T13:08:22;40.11;37.32;44.43;;
60031;Laerm;45901;47.600;9.890;2023-11-22T13:10:56;40.34;37.52;47.38;;
60031;Laerm;45901;47.600;9.890;2023-11-22T13:13:24;40.00;37.52;45.57;;
60031;Laerm;45901;47.600;9.890;2023-11-22T13:15:53;40.95;37.52;47.20;;
60031;Laerm;45901;47.600;9.890;2023-11-22T13:18:20;40.43;37.70;45.60;;
60031;Laerm;45901;47.600;9.890;2023-11-22T13:20:48;40.57;37.70;49.33;;
60031;Laerm;45901;47.600;9.890;2023-11-22T13:23:15;40.21;37.52;42.76;;
60031;Laerm;45901;47.600;9.890;2023-11-22T13:25:43;40.25;37.52;42.98;;
60031;Laerm;45901;47.600;9.890;2023-11-22T13:28:13;39.87;36.45;54.81;;
60031;Laerm;45901;47.600;9.890;2023-11-22T13:30:39;40.78;37.87;47.24;;
60031;Laerm;45901;47.600;9.890;2023-11-22T13:33:07;40.37;37.70;45.20;;
60031;Laerm;45901;47.600;9.890;2023-11-22T13:35:34;40.16;37.88;45.57;;
60031;Laerm;45901;47.600;9.890;2023-11-22T13:38:04;39.91;37.32;43.14;;
60031;Laerm;45901;47.600;9.890;2023-11-22T13:40:36;39.99;37.12;44.23;;
60031;Laerm;45901;47.600;9.890;2023-11-22T13:43:06;40.09;37.12;43.39;;
60031;Laerm;45901;47.600;9.890;2023-11-22T13:45:35;40.13;36.69;46.02;;
60031;Laerm;45901;47.600;9.890;2023-11-22T13:48:04;40.17;37.88;43.54;;
60031;Laerm;45901;47.600;9.890;2023-11-22T13:50:33;40.55;37.52;47.54;;